sensor_id;sensor_type;location;lat;lon;timestamp;P1;durP1;ratioP1;P2;durP2;ratioP2
60665;SDS011;59128;44.642;21.188;2024-02-21T00:00:48;86.35;;;68.63;;
60665;SDS011;59128;44.642;21.188;2024-02-21T00:03:14;86.77;;;68.77;;
60665;SDS011;59128;44.642;21.188;2024-02-21T00:05:41;86.90;;;68.15;;
60665;SDS011;59128;44.642;21.188;2024-02-21T00:08:07;87.80;;;69.20;;
60665;SDS011;59128;44.642;21.188;2024-02-21T00:10:33;84.32;;;66.32;;
60665;SDS011;59128;44.642;21.188;2024-02-21T00:13:00;81.18;;;65.47;;
60665;SDS011;59128;44.642;21.188;2024-02-21T00:15:26;87.00;;;66.20;;
60665;SDS011;59128;44.642;21.188;2024-02-21T00:17:52;85.15;;;65.70;;
60665;SDS011;59128;44.642;21.188;2024-02-21T00:20:18;84.53;;;65.45;;
60665;SDS011;59128;44.642;21.188;2024-02-21T00:22:45;81.90;;;64.70;;
60665;SDS011;59128;44.642;21.188;2024-02-21T00:25:11;87.40;;;70.03;;
60665;SDS011;59128;44.642;21.188;2024-02-21T00:27:37;82.47;;;65.70;;
60665;SDS011;59128;44.642;21.188;2024-02-21T00:30:06;84.70;;;66.05;;
60665;SDS011;59128;44.642;21.188;2024-02-21T00:32:32;75.03;;;61.20;;
60665;SDS011;59128;44.642;21.188;2024-02-21T00:35:02;74.30;;;60.45;;
60665;SDS011;59128;44.642;21.188;2024-02-21T00:37:28;74.35;;;60.28;;
60665;SDS011;59128;44.642;21.188;2024-02-21T00:39:54;70.65;;;58.72;;
60665;SDS011;59128;44.642;21.188;2024-02-21T00:42:20;76.90;;;61.20;;
60665;SDS011;59128;44.642;21.188;2024-02-21T00:44:46;74.25;;;59.25;;
60665;SDS011;59128;44.642;21.188;2024-02-21T00:47:12;74.93;;;58.42;;
60665;SDS011;59128;44.642;21.188;2024-02-21T00:49:39;77.68;;;61.38;;
60665;SDS011;59128;44.642;21.188;2024-02-21T00:52:05;79.45;;;61.67;;
60665;SDS011;59128;44.642;21.188;2024-02-21T00:54:31;75.85;;;60.10;;
60665;SDS011;59128;44.642;21.188;2024-02-21T00:56:57;75.75;;;59.47;;
60665;SDS011;59128;44.642;21.188;2024-02-21T00:59:23;77.55;;;61.10;;
60665;SDS011;59128;44.642;21.188;2024-02-21T01:01:49;74.60;;;56.38;;
60665;SDS011;59128;44.642;21.188;2024-02-21T01:04:15;75.10;;;58.07;;
60665;SDS011;59128;44.642;21.188;2024-02-21T01:06:42;77.40;;;59.05;;
60665;SDS011;59128;44.642;21.188;2024-02-21T01:09:09;74.57;;;59.13;;
60665;SDS011;59128;44.642;21.188;2024-02-21T01:11:35;65.47;;;50.92;;
60665;SDS011;59128;44.642;21.188;2024-02-21T01:14:01;60.53;;;49.00;;
60665;SDS011;59128;44.642;21.188;2024-02-21T01:16:27;61.78;;;49.25;;
60665;SDS011;59128;44.642;21.188;2024-02-21T01:18:54;66.43;;;51.08;;
60665;SDS011;59128;44.642;21.188;2024-02-21T01:21:20;66.00;;;51.00;;
60665;SDS011;59128;44.642;21.188;2024-02-21T01:23:46;61.20;;;48.72;;
60665;SDS011;59128;44.642;21.188;2024-02-21T01:26:12;63.35;;;49.67;;
60665;SDS011;59128;44.642;21.188;2024-02-21T01:28:40;62.15;;;48.63;;
60665;SDS011;59128;44.642;21.188;2024-02-21T01:31:06;58.42;;;47.33;;
60665;SDS011;59128;44.642;21.188;2024-02-21T01:33:32;61.20;;;48.40;;
60665;SDS011;59128;44.642;21.188;2024-02-21T01:36:02;61.72;;;48.08;;
60665;SDS011;59128;44.642;21.188;2024-02-21T01:38:29;59.45;;;48.35;;
60665;SDS011;59128;44.642;21.188;2024-02-21T01:40:57;55.47;;;45.42;;
60665;SDS011;59128;44.642;21.188;2024-02-21T01:43:23;57.47;;;45.72;;
60665;SDS011;59128;44.642;21.188;2024-02-21T01:45:50;56.67;;;45.63;;
60665;SDS011;59128;44.642;21.188;2024-02-21T01:48:17;54.70;;;45.17;;
60665;SDS011;59128;44.642;21.188;2024-02-21T01:50:46;55.80;;;44.00;;
60665;SDS011;59128;44.642;21.188;2024-02-21T01:53:13;59.40;;;45.55;;
60665;SDS011;59128;44.642;21.188;2024-02-21T01:55:46;57.70;;;46.47;;
60665;SDS011;59128;44.642;21.188;2024-02-21T01:58:15;56.90;;;46.47;;
60665;SDS011;59128;44.642;21.188;2024-02-21T02:00:42;58.20;;;46.20;;
60665;SDS011;59128;44.642;21.188;2024-02-21T02:03:12;54.95;;;43.22;;
60665;SDS011;59128;44.642;21.188;2024-02-21T02:05:45;55.30;;;44.30;;
60665;SDS011;59128;44.642;21.188;2024-02-21T02:08:14;57.70;;;45.70;;
60665;SDS011;59128;44.642;21.188;2024-02-21T02:10:41;56.78;;;46.05;;
60665;SDS011;59128;44.642;21.188;2024-02-21T02:13:07;58.50;;;46.22;;
60665;SDS011;59128;44.642;21.188;2024-02-21T02:18:09;61.10;;;48.00;;
60665;SDS011;59128;44.642;21.188;2024-02-21T02:20:35;58.45;;;46.17;;
60665;SDS011;59128;44.642;21.188;2024-02-21T02:23:12;62.53;;;48.67;;
60665;SDS011;59128;44.642;21.188;2024-02-21T02:25:38;64.70;;;49.25;;
60665;SDS011;59128;44.642;21.188;2024-02-21T02:28:08;65.07;;;49.47;;
60665;SDS011;59128;44.642;21.188;2024-02-21T02:30:35;68.57;;;50.75;;
60665;SDS011;59128;44.642;21.188;2024-02-21T02:33:02;60.35;;;47.67;;
60665;SDS011;59128;44.642;21.188;2024-02-21T02:35:28;58.22;;;46.95;;
60665;SDS011;59128;44.642;21.188;2024-02-21T02:37:54;60.17;;;47.85;;
60665;SDS011;59128;44.642;21.188;2024-02-21T02:40:20;55.50;;;46.57;;
60665;SDS011;59128;44.642;21.188;2024-02-21T02:42:47;58.20;;;46.72;;
60665;SDS011;59128;44.642;21.188;2024-02-21T02:45:14;57.88;;;46.72;;
60665;SDS011;59128;44.642;21.188;2024-02-21T02:47:40;57.70;;;46.20;;
60665;SDS011;59128;44.642;21.188;2024-02-21T02:50:07;52.58;;;44.20;;
60665;SDS011;59128;44.642;21.188;2024-02-21T02:52:33;51.58;;;42.85;;
60665;SDS011;59128;44.642;21.188;2024-02-21T02:54:59;49.22;;;41.03;;
60665;SDS011;59128;44.642;21.188;2024-02-21T02:57:27;77.40;;;54.38;;
60665;SDS011;59128;44.642;21.188;2024-02-21T02:59:53;81.72;;;57.63;;
60665;SDS011;59128;44.642;21.188;2024-02-21T03:02:19;51.28;;;41.00;;
60665;SDS011;59128;44.642;21.188;2024-02-21T03:04:45;48.23;;;40.23;;
60665;SDS011;59128;44.642;21.188;2024-02-21T03:07:11;48.85;;;40.35;;
60665;SDS011;59128;44.642;21.188;2024-02-21T03:09:38;49.20;;;39.57;;
60665;SDS011;59128;44.642;21.188;2024-02-21T03:12:04;49.25;;;40.50;;
60665;SDS011;59128;44.642;21.188;2024-02-21T03:14:30;48.45;;;38.08;;
60665;SDS011;59128;44.642;21.188;2024-02-21T03:16:57;47.15;;;38.45;;
60665;SDS011;59128;44.642;21.188;2024-02-21T03:19:24;44.38;;;37.80;;
60665;SDS011;59128;44.642;21.188;2024-02-21T03:21:50;47.13;;;38.20;;
60665;SDS011;59128;44.642;21.188;2024-02-21T03:24:16;50.97;;;40.38;;
60665;SDS011;59128;44.642;21.188;2024-02-21T03:26:42;49.57;;;40.20;;
60665;SDS011;59128;44.642;21.188;2024-02-21T03:29:10;48.28;;;39.92;;
60665;SDS011;59128;44.642;21.188;2024-02-21T03:31:36;46.75;;;38.92;;
60665;SDS011;59128;44.642;21.188;2024-02-21T03:34:03;44.63;;;37.40;;
60665;SDS011;59128;44.642;21.188;2024-02-21T03:36:29;46.50;;;37.90;;
60665;SDS011;59128;44.642;21.188;2024-02-21T03:38:55;49.88;;;40.20;;
60665;SDS011;59128;44.642;21.188;2024-02-21T03:41:21;51.10;;;40.13;;
60665;SDS011;59128;44.642;21.188;2024-02-21T03:43:47;51.28;;;38.63;;
60665;SDS011;59128;44.642;21.188;2024-02-21T03:46:14;51.45;;;40.30;;
60665;SDS011;59128;44.642;21.188;2024-02-21T03:48:40;50.88;;;40.05;;
60665;SDS011;59128;44.642;21.188;2024-02-21T03:51:07;44.95;;;37.97;;
60665;SDS011;59128;44.642;21.188;2024-02-21T03:53:33;46.50;;;38.65;;
60665;SDS011;59128;44.642;21.188;2024-02-21T03:56:02;62.47;;;45.20;;
60665;SDS011;59128;44.642;21.188;2024-02-21T03:58:32;60.70;;;44.63;;
60665;SDS011;59128;44.642;21.188;2024-02-21T04:01:01;53.70;;;42.60;;
60665;SDS011;59128;44.642;21.188;2024-02-21T04:03:27;88.63;;;56.83;;
60665;SDS011;59128;44.642;21.188;2024-02-21T04:05:53;80.57;;;55.38;;
60665;SDS011;59128;44.642;21.188;2024-02-21T04:08:19;55.55;;;46.10;;
60665;SDS011;59128;44.642;21.188;2024-02-21T04:10:45;57.73;;;46.60;;
60665;SDS011;59128;44.642;21.188;2024-02-21T04:13:12;79.55;;;55.03;;
60665;SDS011;59128;44.642;21.188;2024-02-21T04:15:38;122.22;;;73.43;;
60665;SDS011;59128;44.642;21.188;2024-02-21T04:18:04;90.10;;;59.80;;
60665;SDS011;59128;44.642;21.188;2024-02-21T04:20:30;88.50;;;61.65;;
60665;SDS011;59128;44.642;21.188;2024-02-21T04:22:57;97.35;;;67.18;;
60665;SDS011;59128;44.642;21.188;2024-02-21T04:25:23;57.90;;;47.75;;
60665;SDS011;59128;44.642;21.188;2024-02-21T04:27:49;62.25;;;49.47;;
60665;SDS011;59128;44.642;21.188;2024-02-21T04:30:15;61.95;;;50.08;;
60665;SDS011;59128;44.642;21.188;2024-02-21T04:32:41;62.05;;;48.85;;
60665;SDS011;59128;44.642;21.188;2024-02-21T04:35:07;64.07;;;50.45;;
60665;SDS011;59128;44.642;21.188;2024-02-21T04:37:34;80.40;;;56.27;;
60665;SDS011;59128;44.642;21.188;2024-02-21T04:40:00;79.85;;;57.90;;
60665;SDS011;59128;44.642;21.188;2024-02-21T04:42:26;95.57;;;68.10;;
60665;SDS011;59128;44.642;21.188;2024-02-21T04:44:52;85.73;;;64.63;;
60665;SDS011;59128;44.642;21.188;2024-02-21T04:47:18;107.95;;;78.60;;
60665;SDS011;59128;44.642;21.188;2024-02-21T04:49:49;125.50;;;88.68;;
60665;SDS011;59128;44.642;21.188;2024-02-21T04:52:15;126.75;;;89.47;;
60665;SDS011;59128;44.642;21.188;2024-02-21T04:54:42;159.33;;;100.10;;
60665;SDS011;59128;44.642;21.188;2024-02-21T04:57:08;120.18;;;84.75;;
60665;SDS011;59128;44.642;21.188;2024-02-21T04:59:35;142.93;;;93.85;;
60665;SDS011;59128;44.642;21.188;2024-02-21T05:02:01;101.90;;;77.13;;
60665;SDS011;59128;44.642;21.188;2024-02-21T05:04:27;80.47;;;62.85;;
60665;SDS011;59128;44.642;21.188;2024-02-21T05:06:53;75.22;;;60.17;;
60665;SDS011;59128;44.642;21.188;2024-02-21T05:09:20;81.60;;;63.70;;
60665;SDS011;59128;44.642;21.188;2024-02-21T05:11:46;83.03;;;65.13;;
60665;SDS011;59128;44.642;21.188;2024-02-21T05:14:12;79.35;;;64.30;;
60665;SDS011;59128;44.642;21.188;2024-02-21T05:16:39;110.05;;;82.85;;
60665;SDS011;59128;44.642;21.188;2024-02-21T05:19:05;100.40;;;77.70;;
60665;SDS011;59128;44.642;21.188;2024-02-21T05:21:31;105.13;;;75.07;;
60665;SDS011;59128;44.642;21.188;2024-02-21T05:23:57;97.53;;;73.85;;
60665;SDS011;59128;44.642;21.188;2024-02-21T05:26:26;101.72;;;73.97;;
60665;SDS011;59128;44.642;21.188;2024-02-21T05:28:52;96.10;;;71.63;;
60665;SDS011;59128;44.642;21.188;2024-02-21T05:31:18;99.78;;;72.60;;
60665;SDS011;59128;44.642;21.188;2024-02-21T05:33:45;94.95;;;70.00;;
60665;SDS011;59128;44.642;21.188;2024-02-21T05:36:11;96.10;;;70.67;;
60665;SDS011;59128;44.642;21.188;2024-02-21T05:38:37;96.68;;;71.28;;
60665;SDS011;59128;44.642;21.188;2024-02-21T05:41:03;93.27;;;70.00;;
60665;SDS011;59128;44.642;21.188;2024-02-21T05:43:30;91.97;;;69.88;;
60665;SDS011;59128;44.642;21.188;2024-02-21T05:45:56;96.57;;;72.45;;
60665;SDS011;59128;44.642;21.188;2024-02-21T05:48:22;99.57;;;73.32;;
60665;SDS011;59128;44.642;21.188;2024-02-21T05:50:48;89.33;;;69.53;;
60665;SDS011;59128;44.642;21.188;2024-02-21T05:53:14;93.32;;;70.15;;
60665;SDS011;59128;44.642;21.188;2024-02-21T05:55:40;94.57;;;70.13;;
60665;SDS011;59128;44.642;21.188;2024-02-21T05:58:07;95.13;;;69.90;;
60665;SDS011;59128;44.642;21.188;2024-02-21T06:00:36;106.07;;;77.03;;
60665;SDS011;59128;44.642;21.188;2024-02-21T06:03:02;98.75;;;73.45;;
60665;SDS011;59128;44.642;21.188;2024-02-21T06:05:29;104.07;;;77.53;;
60665;SDS011;59128;44.642;21.188;2024-02-21T06:07:56;102.40;;;77.97;;
60665;SDS011;59128;44.642;21.188;2024-02-21T06:10:22;101.72;;;76.10;;
60665;SDS011;59128;44.642;21.188;2024-02-21T06:12:48;96.37;;;74.77;;
60665;SDS011;59128;44.642;21.188;2024-02-21T06:15:14;90.47;;;69.30;;
60665;SDS011;59128;44.642;21.188;2024-02-21T06:17:40;86.78;;;65.53;;
60665;SDS011;59128;44.642;21.188;2024-02-21T06:20:06;82.57;;;62.83;;
60665;SDS011;59128;44.642;21.188;2024-02-21T06:22:32;80.18;;;63.85;;
60665;SDS011;59128;44.642;21.188;2024-02-21T06:24:59;79.70;;;61.40;;
60665;SDS011;59128;44.642;21.188;2024-02-21T06:27:25;118.88;;;85.15;;
60665;SDS011;59128;44.642;21.188;2024-02-21T06:29:51;154.27;;;112.23;;
60665;SDS011;59128;44.642;21.188;2024-02-21T06:32:20;188.65;;;134.85;;
60665;SDS011;59128;44.642;21.188;2024-02-21T06:34:46;170.50;;;129.50;;
60665;SDS011;59128;44.642;21.188;2024-02-21T06:37:12;134.55;;;106.80;;
60665;SDS011;59128;44.642;21.188;2024-02-21T06:39:38;113.03;;;90.57;;
60665;SDS011;59128;44.642;21.188;2024-02-21T06:42:05;75.73;;;60.50;;
60665;SDS011;59128;44.642;21.188;2024-02-21T06:44:31;72.43;;;60.60;;
60665;SDS011;59128;44.642;21.188;2024-02-21T06:47:01;94.73;;;76.77;;
60665;SDS011;59128;44.642;21.188;2024-02-21T06:49:27;99.70;;;77.38;;
60665;SDS011;59128;44.642;21.188;2024-02-21T06:51:54;88.68;;;68.00;;
60665;SDS011;59128;44.642;21.188;2024-02-21T06:54:20;65.07;;;52.25;;
60665;SDS011;59128;44.642;21.188;2024-02-21T06:56:46;51.58;;;42.45;;
60665;SDS011;59128;44.642;21.188;2024-02-21T06:59:12;44.42;;;35.75;;
60665;SDS011;59128;44.642;21.188;2024-02-21T07:01:44;39.83;;;32.15;;
60665;SDS011;59128;44.642;21.188;2024-02-21T07:04:10;28.50;;;25.40;;
60665;SDS011;59128;44.642;21.188;2024-02-21T07:06:36;28.25;;;23.90;;
60665;SDS011;59128;44.642;21.188;2024-02-21T07:09:02;26.45;;;23.50;;
60665;SDS011;59128;44.642;21.188;2024-02-21T07:11:28;27.38;;;23.63;;
60665;SDS011;59128;44.642;21.188;2024-02-21T07:13:54;26.98;;;22.85;;
60665;SDS011;59128;44.642;21.188;2024-02-21T07:16:21;24.73;;;21.48;;
60665;SDS011;59128;44.642;21.188;2024-02-21T07:18:47;28.05;;;23.30;;
60665;SDS011;59128;44.642;21.188;2024-02-21T07:21:13;27.65;;;24.05;;
60665;SDS011;59128;44.642;21.188;2024-02-21T07:23:40;29.13;;;24.05;;
60665;SDS011;59128;44.642;21.188;2024-02-21T07:26:10;24.55;;;20.23;;
60665;SDS011;59128;44.642;21.188;2024-02-21T07:28:36;22.27;;;18.30;;
60665;SDS011;59128;44.642;21.188;2024-02-21T07:31:02;21.83;;;19.08;;
60665;SDS011;59128;44.642;21.188;2024-02-21T07:33:28;21.52;;;18.30;;
60665;SDS011;59128;44.642;21.188;2024-02-21T07:35:55;23.77;;;18.50;;
60665;SDS011;59128;44.642;21.188;2024-02-21T07:38:22;22.60;;;18.08;;
60665;SDS011;59128;44.642;21.188;2024-02-21T07:40:48;21.73;;;18.10;;
60665;SDS011;59128;44.642;21.188;2024-02-21T07:43:14;24.15;;;18.33;;
60665;SDS011;59128;44.642;21.188;2024-02-21T07:45:41;34.83;;;25.50;;
60665;SDS011;59128;44.642;21.188;2024-02-21T07:48:07;82.03;;;47.03;;
60665;SDS011;59128;44.642;21.188;2024-02-21T07:50:33;66.28;;;37.67;;
60665;SDS011;59128;44.642;21.188;2024-02-21T07:53:00;39.63;;;26.17;;
60665;SDS011;59128;44.642;21.188;2024-02-21T07:55:26;21.95;;;17.33;;
60665;SDS011;59128;44.642;21.188;2024-02-21T07:57:52;115.07;;;54.67;;
60665;SDS011;59128;44.642;21.188;2024-02-21T08:00:18;78.43;;;39.07;;
60665;SDS011;59128;44.642;21.188;2024-02-21T08:02:50;23.00;;;16.08;;
60665;SDS011;59128;44.642;21.188;2024-02-21T08:05:17;13.05;;;11.00;;
60665;SDS011;59128;44.642;21.188;2024-02-21T08:07:43;67.57;;;38.03;;
60665;SDS011;59128;44.642;21.188;2024-02-21T08:10:09;52.42;;;30.80;;
60665;SDS011;59128;44.642;21.188;2024-02-21T08:12:35;21.02;;;16.73;;
60665;SDS011;59128;44.642;21.188;2024-02-21T08:15:01;13.65;;;12.18;;
60665;SDS011;59128;44.642;21.188;2024-02-21T08:17:31;13.03;;;11.63;;
60665;SDS011;59128;44.642;21.188;2024-02-21T08:19:57;12.57;;;11.18;;
60665;SDS011;59128;44.642;21.188;2024-02-21T08:22:23;12.73;;;11.40;;
60665;SDS011;59128;44.642;21.188;2024-02-21T08:24:49;11.80;;;10.60;;
60665;SDS011;59128;44.642;21.188;2024-02-21T08:27:16;10.88;;;9.77;;
60665;SDS011;59128;44.642;21.188;2024-02-21T08:29:42;10.75;;;9.65;;
60665;SDS011;59128;44.642;21.188;2024-02-21T08:32:08;16.50;;;10.20;;
60665;SDS011;59128;44.642;21.188;2024-02-21T08:34:34;10.13;;;9.13;;
60665;SDS011;59128;44.642;21.188;2024-02-21T08:37:00;10.98;;;9.60;;
60665;SDS011;59128;44.642;21.188;2024-02-21T08:39:26;10.18;;;9.10;;
60665;SDS011;59128;44.642;21.188;2024-02-21T08:41:53;10.00;;;9.00;;
60665;SDS011;59128;44.642;21.188;2024-02-21T08:44:21;10.48;;;9.40;;
60665;SDS011;59128;44.642;21.188;2024-02-21T08:46:48;11.73;;;10.10;;
60665;SDS011;59128;44.642;21.188;2024-02-21T08:49:14;11.23;;;9.98;;
60665;SDS011;59128;44.642;21.188;2024-02-21T08:51:40;10.50;;;9.32;;
60665;SDS011;59128;44.642;21.188;2024-02-21T08:54:08;10.70;;;9.60;;
60665;SDS011;59128;44.642;21.188;2024-02-21T08:56:34;10.13;;;9.13;;
60665;SDS011;59128;44.642;21.188;2024-02-21T08:59:00;10.18;;;9.18;;
60665;SDS011;59128;44.642;21.188;2024-02-21T09:01:26;10.10;;;9.10;;
60665;SDS011;59128;44.642;21.188;2024-02-21T09:03:53;11.23;;;9.48;;
60665;SDS011;59128;44.642;21.188;2024-02-21T09:06:21;12.07;;;9.70;;
60665;SDS011;59128;44.642;21.188;2024-02-21T09:08:47;12.93;;;9.52;;
60665;SDS011;59128;44.642;21.188;2024-02-21T09:11:13;12.02;;;9.48;;
60665;SDS011;59128;44.642;21.188;2024-02-21T09:13:40;10.02;;;9.02;;
60665;SDS011;59128;44.642;21.188;2024-02-21T09:16:06;11.30;;;8.77;;
60665;SDS011;59128;44.642;21.188;2024-02-21T09:18:32;9.52;;;8.23;;
60665;SDS011;59128;44.642;21.188;2024-02-21T09:21:00;9.25;;;8.02;;
60665;SDS011;59128;44.642;21.188;2024-02-21T09:23:26;8.20;;;7.40;;
60665;SDS011;59128;44.642;21.188;2024-02-21T09:25:52;7.70;;;6.90;;
60665;SDS011;59128;44.642;21.188;2024-02-21T09:28:20;8.63;;;6.80;;
60665;SDS011;59128;44.642;21.188;2024-02-21T09:30:46;7.57;;;6.75;;
60665;SDS011;59128;44.642;21.188;2024-02-21T09:33:12;9.97;;;6.77;;
60665;SDS011;59128;44.642;21.188;2024-02-21T09:35:38;7.68;;;6.70;;
60665;SDS011;59128;44.642;21.188;2024-02-21T09:38:05;8.05;;;7.05;;
60665;SDS011;59128;44.642;21.188;2024-02-21T09:40:31;8.27;;;7.32;;
60665;SDS011;59128;44.642;21.188;2024-02-21T09:43:02;7.75;;;7.05;;
60665;SDS011;59128;44.642;21.188;2024-02-21T09:45:34;9.02;;;7.82;;
60665;SDS011;59128;44.642;21.188;2024-02-21T09:50:39;8.95;;;7.47;;
60665;SDS011;59128;44.642;21.188;2024-02-21T09:53:06;8.73;;;7.80;;
60665;SDS011;59128;44.642;21.188;2024-02-21T09:55:36;8.67;;;7.77;;
60665;SDS011;59128;44.642;21.188;2024-02-21T09:58:05;8.20;;;7.40;;
60665;SDS011;59128;44.642;21.188;2024-02-21T10:00:31;7.72;;;6.57;;
60665;SDS011;59128;44.642;21.188;2024-02-21T10:02:58;8.40;;;7.53;;
60665;SDS011;59128;44.642;21.188;2024-02-21T10:05:24;9.63;;;7.80;;
60665;SDS011;59128;44.642;21.188;2024-02-21T10:07:52;10.13;;;7.83;;
60665;SDS011;59128;44.642;21.188;2024-02-21T10:10:19;8.30;;;7.18;;
60665;SDS011;59128;44.642;21.188;2024-02-21T10:12:53;10.35;;;7.60;;
60665;SDS011;59128;44.642;21.188;2024-02-21T10:15:23;7.78;;;6.63;;
60665;SDS011;59128;44.642;21.188;2024-02-21T10:18:02;7.95;;;6.85;;
60665;SDS011;59128;44.642;21.188;2024-02-21T10:20:32;8.90;;;7.30;;
60665;SDS011;59128;44.642;21.188;2024-02-21T10:23:03;8.27;;;7.30;;
60665;SDS011;59128;44.642;21.188;2024-02-21T10:25:33;9.02;;;6.63;;
60665;SDS011;59128;44.642;21.188;2024-02-21T10:27:59;8.00;;;7.20;;
60665;SDS011;59128;44.642;21.188;2024-02-21T10:30:25;9.07;;;7.50;;
60665;SDS011;59128;44.642;21.188;2024-02-21T10:32:51;10.20;;;7.68;;
60665;SDS011;59128;44.642;21.188;2024-02-21T10:35:31;9.93;;;8.07;;
60665;SDS011;59128;44.642;21.188;2024-02-21T10:37:57;9.43;;;7.95;;
60665;SDS011;59128;44.642;21.188;2024-02-21T10:40:24;13.98;;;9.00;;
60665;SDS011;59128;44.642;21.188;2024-02-21T10:42:56;10.30;;;8.90;;
60665;SDS011;59128;44.642;21.188;2024-02-21T10:45:24;9.48;;;7.88;;
60665;SDS011;59128;44.642;21.188;2024-02-21T10:47:54;8.70;;;7.80;;
60665;SDS011;59128;44.642;21.188;2024-02-21T10:50:21;8.90;;;8.00;;
60665;SDS011;59128;44.642;21.188;2024-02-21T10:53:01;10.23;;;7.70;;
60665;SDS011;59128;44.642;21.188;2024-02-21T10:55:31;8.77;;;7.63;;
60665;SDS011;59128;44.642;21.188;2024-02-21T10:57:59;9.88;;;7.28;;
60665;SDS011;59128;44.642;21.188;2024-02-21T11:00:25;8.48;;;7.50;;
60665;SDS011;59128;44.642;21.188;2024-02-21T11:02:55;8.60;;;7.40;;
60665;SDS011;59128;44.642;21.188;2024-02-21T11:05:22;9.18;;;6.80;;
60665;SDS011;59128;44.642;21.188;2024-02-21T11:07:48;7.03;;;6.32;;
60665;SDS011;59128;44.642;21.188;2024-02-21T11:10:22;7.45;;;6.45;;
60665;SDS011;59128;44.642;21.188;2024-02-21T11:12:49;7.88;;;6.07;;
60665;SDS011;59128;44.642;21.188;2024-02-21T11:15:15;7.85;;;6.00;;
60665;SDS011;59128;44.642;21.188;2024-02-21T11:17:41;9.63;;;6.10;;
60665;SDS011;59128;44.642;21.188;2024-02-21T11:20:14;8.02;;;6.10;;
60665;SDS011;59128;44.642;21.188;2024-02-21T11:22:41;8.77;;;6.15;;
60665;SDS011;59128;44.642;21.188;2024-02-21T11:25:10;7.03;;;6.23;;
60665;SDS011;59128;44.642;21.188;2024-02-21T11:27:37;7.90;;;6.72;;
60665;SDS011;59128;44.642;21.188;2024-02-21T11:30:04;9.68;;;8.57;;
60665;SDS011;59128;44.642;21.188;2024-02-21T11:32:30;10.35;;;7.63;;
60665;SDS011;59128;44.642;21.188;2024-02-21T11:34:57;10.57;;;7.57;;
60665;SDS011;59128;44.642;21.188;2024-02-21T11:37:36;9.68;;;7.70;;
60665;SDS011;59128;44.642;21.188;2024-02-21T11:40:03;8.07;;;6.78;;
60665;SDS011;59128;44.642;21.188;2024-02-21T11:42:29;8.90;;;7.50;;
60665;SDS011;59128;44.642;21.188;2024-02-21T11:44:56;12.20;;;10.27;;
60665;SDS011;59128;44.642;21.188;2024-02-21T11:47:22;10.68;;;7.60;;
60665;SDS011;59128;44.642;21.188;2024-02-21T11:49:48;9.07;;;7.73;;
60665;SDS011;59128;44.642;21.188;2024-02-21T11:52:18;10.45;;;8.77;;
60665;SDS011;59128;44.642;21.188;2024-02-21T11:54:45;9.68;;;7.57;;
60665;SDS011;59128;44.642;21.188;2024-02-21T11:57:11;12.27;;;9.35;;
60665;SDS011;59128;44.642;21.188;2024-02-21T11:59:39;38.25;;;26.40;;
60665;SDS011;59128;44.642;21.188;2024-02-21T12:02:06;21.70;;;13.82;;
60665;SDS011;59128;44.642;21.188;2024-02-21T12:04:32;11.17;;;7.13;;
60665;SDS011;59128;44.642;21.188;2024-02-21T12:06:58;23.90;;;13.63;;
60665;SDS011;59128;44.642;21.188;2024-02-21T12:09:25;27.80;;;16.80;;
60665;SDS011;59128;44.642;21.188;2024-02-21T12:11:58;16.90;;;12.03;;
60665;SDS011;59128;44.642;21.188;2024-02-21T12:14:24;9.47;;;7.60;;
60665;SDS011;59128;44.642;21.188;2024-02-21T12:16:51;8.27;;;6.38;;
60665;SDS011;59128;44.642;21.188;2024-02-21T12:19:17;11.27;;;8.52;;
60665;SDS011;59128;44.642;21.188;2024-02-21T12:21:43;5.93;;;4.57;;
60665;SDS011;59128;44.642;21.188;2024-02-21T12:24:13;19.90;;;15.93;;
60665;SDS011;59128;44.642;21.188;2024-02-21T12:26:40;5.22;;;3.15;;
60665;SDS011;59128;44.642;21.188;2024-02-21T12:29:06;23.25;;;15.48;;
60665;SDS011;59128;44.642;21.188;2024-02-21T12:31:35;7.07;;;4.50;;
60665;SDS011;59128;44.642;21.188;2024-02-21T12:34:01;14.02;;;8.45;;
60665;SDS011;59128;44.642;21.188;2024-02-21T12:36:27;11.00;;;3.90;;
60665;SDS011;59128;44.642;21.188;2024-02-21T12:38:53;8.13;;;3.90;;
60665;SDS011;59128;44.642;21.188;2024-02-21T12:41:19;7.20;;;4.60;;
60665;SDS011;59128;44.642;21.188;2024-02-21T12:43:45;13.70;;;7.80;;
60665;SDS011;59128;44.642;21.188;2024-02-21T12:46:12;23.70;;;13.52;;
60665;SDS011;59128;44.642;21.188;2024-02-21T12:48:38;30.33;;;16.25;;
60665;SDS011;59128;44.642;21.188;2024-02-21T12:51:05;15.88;;;8.30;;
60665;SDS011;59128;44.642;21.188;2024-02-21T12:53:31;43.15;;;21.10;;
60665;SDS011;59128;44.642;21.188;2024-02-21T12:55:57;15.77;;;9.07;;
60665;SDS011;59128;44.642;21.188;2024-02-21T12:58:23;17.48;;;9.30;;
60665;SDS011;59128;44.642;21.188;2024-02-21T13:00:49;9.02;;;6.07;;
60665;SDS011;59128;44.642;21.188;2024-02-21T13:03:15;12.57;;;7.63;;
60665;SDS011;59128;44.642;21.188;2024-02-21T13:05:41;23.90;;;12.85;;
60665;SDS011;59128;44.642;21.188;2024-02-21T13:08:08;7.85;;;4.43;;
60665;SDS011;59128;44.642;21.188;2024-02-21T13:10:34;9.65;;;5.75;;
60665;SDS011;59128;44.642;21.188;2024-02-21T13:13:03;10.93;;;5.90;;
60665;SDS011;59128;44.642;21.188;2024-02-21T13:15:29;13.98;;;7.47;;
60665;SDS011;59128;44.642;21.188;2024-02-21T13:17:56;6.97;;;3.70;;
60665;SDS011;59128;44.642;21.188;2024-02-21T13:20:25;4.93;;;3.33;;
60665;SDS011;59128;44.642;21.188;2024-02-21T13:22:53;6.13;;;3.53;;
60665;SDS011;59128;44.642;21.188;2024-02-21T13:25:19;7.03;;;3.90;;
60665;SDS011;59128;44.642;21.188;2024-02-21T13:27:46;8.32;;;4.13;;
60665;SDS011;59128;44.642;21.188;2024-02-21T13:30:12;6.55;;;3.58;;
60665;SDS011;59128;44.642;21.188;2024-02-21T13:32:40;8.52;;;4.63;;
60665;SDS011;59128;44.642;21.188;2024-02-21T13:35:07;19.70;;;9.93;;
60665;SDS011;59128;44.642;21.188;2024-02-21T13:37:33;6.27;;;3.30;;
60665;SDS011;59128;44.642;21.188;2024-02-21T13:40:00;8.50;;;4.40;;
60665;SDS011;59128;44.642;21.188;2024-02-21T13:42:26;6.53;;;4.05;;
60665;SDS011;59128;44.642;21.188;2024-02-21T13:44:53;14.93;;;9.55;;
60665;SDS011;59128;44.642;21.188;2024-02-21T13:47:19;11.77;;;6.90;;
60665;SDS011;59128;44.642;21.188;2024-02-21T13:49:46;8.27;;;3.30;;
60665;SDS011;59128;44.642;21.188;2024-02-21T13:52:12;10.35;;;6.65;;
60665;SDS011;59128;44.642;21.188;2024-02-21T13:54:39;13.43;;;8.53;;
60665;SDS011;59128;44.642;21.188;2024-02-21T13:57:05;6.88;;;4.20;;
60665;SDS011;59128;44.642;21.188;2024-02-21T13:59:31;5.25;;;3.45;;
60665;SDS011;59128;44.642;21.188;2024-02-21T14:01:58;11.73;;;8.70;;
60665;SDS011;59128;44.642;21.188;2024-02-21T14:04:24;17.27;;;9.63;;
60665;SDS011;59128;44.642;21.188;2024-02-21T14:06:50;12.77;;;8.32;;
60665;SDS011;59128;44.642;21.188;2024-02-21T14:09:18;9.27;;;6.10;;
60665;SDS011;59128;44.642;21.188;2024-02-21T14:11:44;12.50;;;7.15;;
60665;SDS011;59128;44.642;21.188;2024-02-21T14:14:10;10.15;;;6.00;;
60665;SDS011;59128;44.642;21.188;2024-02-21T14:16:37;7.93;;;5.18;;
60665;SDS011;59128;44.642;21.188;2024-02-21T14:19:03;18.00;;;12.10;;